Baia Mare, Romania
Current Conditions -  °F | °C
As of 7:30 AM on Monday 20 Oct 2014 (Local Time) from LRBM Reporting Station
Moderate Fog Moderate Fog  
Wind Chill: 38°   Ceiling: Unl
Heat Index: 41°   Visibility: 6mi
Dew Point: 41°   Wind: 5mph
Humidity: 100%   Direction: 100°E
Pressure: 30.18"   Gusts: NA
Location:  47.67°N, 23.58°E
Report Text: LRBM 200430Z 10004KT 9999 VCFG NSC 05/05 Q1022
Loading
Personal Weather Stations






























Interactive Weather Map
Tropical Storm Tracking
New forecast layout! Learn more

10-Day Weather Forecast

Advertisements
Track Severe Weather on mobile